createdAt,value
2018-07-03T00:00:13.953Z,7.57
2018-07-03T00:02:44.942Z,7.10
2018-07-03T00:05:16.233Z,8.13
2018-07-03T00:07:47.492Z,6.77
2018-07-03T00:10:19.242Z,7.47
2018-07-03T00:12:50.252Z,7.07
2018-07-03T00:15:21.824Z,6.93
2018-07-03T00:17:52.972Z,7.17
2018-07-03T00:20:23.939Z,6.80
2018-07-03T00:22:54.881Z,7.53
2018-07-03T00:25:26.216Z,7.53
2018-07-03T00:27:57.125Z,6.70
2018-07-03T00:30:28.182Z,7.50
2018-07-03T00:32:59.335Z,6.90
2018-07-03T00:35:30.643Z,8.10
2018-07-03T00:38:01.660Z,7.67
2018-07-03T00:40:32.596Z,7.63
2018-07-03T00:43:04.047Z,8.17
2018-07-03T00:45:35.360Z,7.10
2018-07-03T00:48:06.359Z,7.50
2018-07-03T00:50:37.129Z,7.13
2018-07-03T00:53:08.143Z,8.43
2018-07-03T00:55:39.216Z,7.73
2018-07-03T00:58:10.152Z,7.33
2018-07-03T01:00:41.130Z,8.73
2018-07-03T01:03:12.281Z,7.40
2018-07-03T01:05:43.323Z,8.23
2018-07-03T01:08:16.155Z,7.30
2018-07-03T01:10:47.385Z,8.10
2018-07-03T01:13:18.713Z,8.07
2018-07-03T01:15:49.745Z,7.67
2018-07-03T01:18:20.712Z,8.13
2018-07-03T01:20:51.723Z,7.13
2018-07-03T01:23:22.600Z,7.40
2018-07-03T01:25:53.641Z,7.60
2018-07-03T01:28:24.570Z,7.53
2018-07-03T01:30:55.658Z,7.47
2018-07-03T01:33:27.791Z,7.10
2018-07-03T01:35:58.744Z,6.90
2018-07-03T01:38:29.771Z,7.67
2018-07-03T01:41:01.128Z,7.73
2018-07-03T01:43:30.816Z,6.97
2018-07-03T01:46:01.583Z,7.17
2018-07-03T01:48:32.818Z,7.17
2018-07-03T01:51:03.991Z,7.67
2018-07-03T01:53:34.828Z,7.40
2018-07-03T01:56:05.772Z,6.93
2018-07-03T01:58:36.905Z,8.07
2018-07-03T02:01:08.235Z,7.30
2018-07-03T02:03:39.461Z,7.53
2018-07-03T02:06:10.610Z,8.40
2018-07-03T02:08:41.863Z,8.67
2018-07-03T02:11:12.949Z,8.00
2018-07-03T02:13:44.152Z,7.70
2018-07-03T02:16:15.210Z,8.07
2018-07-03T02:18:46.245Z,7.60
2018-07-03T02:21:17.483Z,7.70
2018-07-03T02:23:48.511Z,8.77
2018-07-03T02:26:19.616Z,8.20
2018-07-03T02:28:50.660Z,8.80
2018-07-03T02:31:21.728Z,8.10
2018-07-03T02:33:53.097Z,8.73
2018-07-03T02:36:24.530Z,8.10
2018-07-03T02:38:55.760Z,9.00
2018-07-03T02:41:26.744Z,8.07
2018-07-03T02:43:57.928Z,8.50
2018-07-03T02:46:29.891Z,9.63
2018-07-03T02:49:00.989Z,8.30
2018-07-03T02:51:32.891Z,7.80
2018-07-03T02:54:03.984Z,8.53
2018-07-03T02:56:35.140Z,8.40
2018-07-03T02:59:05.974Z,9.33
2018-07-03T03:01:37.335Z,8.27
2018-07-03T03:04:08.383Z,7.83
2018-07-03T03:07:42.474Z,7.67
2018-07-03T03:10:13.487Z,7.60
2018-07-03T03:12:45.563Z,6.80
2018-07-03T03:15:16.351Z,7.97
2018-07-03T03:17:47.453Z,8.37
2018-07-03T03:20:18.353Z,8.30
2018-07-03T03:22:49.193Z,8.10
2018-07-03T03:25:20.270Z,7.63
2018-07-03T03:27:51.202Z,8.20
2018-07-03T03:30:22.122Z,7.13
2018-07-03T03:32:53.106Z,7.47
2018-07-03T03:35:24.068Z,7.90
2018-07-03T03:37:55.153Z,8.23
2018-07-03T03:40:26.872Z,7.63
2018-07-03T03:42:57.873Z,7.27
2018-07-03T03:45:28.748Z,8.40
2018-07-03T03:47:59.987Z,8.00
2018-07-03T03:50:30.948Z,7.40
2018-07-03T03:53:01.957Z,7.13
2018-07-03T03:55:33.195Z,7.13
2018-07-03T03:58:04.339Z,7.10
2018-07-03T04:00:35.468Z,6.93
2018-07-03T04:03:06.763Z,8.20
2018-07-03T04:05:37.711Z,6.40
2018-07-03T04:08:08.926Z,7.37
2018-07-03T04:10:40.039Z,7.30
2018-07-03T04:13:11.189Z,7.27
2018-07-03T04:15:42.291Z,7.57
2018-07-03T04:18:13.540Z,7.67
2018-07-03T04:20:44.555Z,6.30
2018-07-03T04:23:15.668Z,7.17
2018-07-03T04:25:46.644Z,7.60
2018-07-03T04:28:17.930Z,6.00
2018-07-03T04:30:49.208Z,6.03
2018-07-03T04:33:20.449Z,5.80
2018-07-03T04:35:51.458Z,6.60
2018-07-03T04:38:22.769Z,6.60
2018-07-03T04:40:54.964Z,6.10
2018-07-03T04:43:26.266Z,5.90
2018-07-03T04:45:57.478Z,6.40
2018-07-03T04:48:28.791Z,6.37
2018-07-03T04:50:59.882Z,6.23
2018-07-03T04:53:31.154Z,7.10
2018-07-03T04:56:02.328Z,6.43
2018-07-03T04:58:34.548Z,6.57
2018-07-03T05:01:06.221Z,5.87
2018-07-03T05:03:37.173Z,6.47
2018-07-03T05:06:08.466Z,6.30
2018-07-03T05:08:40.656Z,6.70
2018-07-03T05:11:11.507Z,6.70
2018-07-03T05:13:42.702Z,7.27
2018-07-03T05:16:13.665Z,6.83
2018-07-03T05:18:45.033Z,6.87
2018-07-03T05:21:16.153Z,7.07
2018-07-03T05:23:47.458Z,7.20
2018-07-03T05:26:18.511Z,7.40
2018-07-03T05:28:52.030Z,7.93
2018-07-03T05:31:23.026Z,7.30
2018-07-03T05:33:54.336Z,7.33
2018-07-03T05:36:25.386Z,7.60
2018-07-03T05:38:56.675Z,8.00
2018-07-03T05:41:27.696Z,8.53
2018-07-03T05:43:58.975Z,7.80
2018-07-03T05:46:30.052Z,8.03
2018-07-03T05:49:02.217Z,8.93
2018-07-03T05:51:33.435Z,8.13
2018-07-03T05:54:04.721Z,9.33
2018-07-03T05:56:36.466Z,8.20
2018-07-03T05:59:08.767Z,8.67
2018-07-03T06:01:40.726Z,7.90
2018-07-03T06:04:13.421Z,7.17
2018-07-03T06:06:45.430Z,7.40
2018-07-03T06:09:16.683Z,7.63
2018-07-03T06:11:47.843Z,7.93
2018-07-03T06:14:19.149Z,9.00
2018-07-03T06:16:54.121Z,8.87
2018-07-03T06:19:26.734Z,9.37
2018-07-03T06:21:58.004Z,9.00
2018-07-03T06:24:29.421Z,9.00
2018-07-03T06:27:00.851Z,8.63
2018-07-03T06:29:32.521Z,9.90
2018-07-03T06:32:04.631Z,9.23
2018-07-03T06:34:36.086Z,9.13
2018-07-03T06:37:07.232Z,9.17
2018-07-03T06:39:38.582Z,8.97
2018-07-03T06:42:09.738Z,8.87
2018-07-03T06:44:41.123Z,9.30
2018-07-03T06:47:12.129Z,8.83
2018-07-03T06:49:43.278Z,8.50
2018-07-03T06:52:14.455Z,8.20
2018-07-03T06:54:45.800Z,8.63
2018-07-03T06:57:17.033Z,8.47
2018-07-03T06:59:48.086Z,8.10
2018-07-03T07:02:19.965Z,9.33
2018-07-03T07:04:50.981Z,10.03
2018-07-03T07:07:21.860Z,9.10
2018-07-03T07:09:53.126Z,8.77
2018-07-03T07:12:24.130Z,8.90
2018-07-03T07:14:55.108Z,8.90
2018-07-03T07:17:26.065Z,9.40
2018-07-03T07:19:57.056Z,9.03
2018-07-03T07:22:28.077Z,9.63
2018-07-03T07:24:59.630Z,8.37
2018-07-03T07:27:30.676Z,9.60
2018-07-03T07:30:02.655Z,8.70
2018-07-03T07:32:33.896Z,8.30
2018-07-03T07:35:05.044Z,8.43
2018-07-03T07:37:37.470Z,7.83
2018-07-03T07:40:08.631Z,7.50
2018-07-03T07:42:40.468Z,8.20
2018-07-03T07:45:11.900Z,8.47
2018-07-03T07:47:43.175Z,7.53
2018-07-03T07:50:14.440Z,7.40
2018-07-03T07:52:45.469Z,7.50
2018-07-03T07:55:16.709Z,8.63
2018-07-03T07:57:47.840Z,7.63
2018-07-03T08:00:19.182Z,7.77
2018-07-03T08:02:50.564Z,8.80
2018-07-03T08:05:21.682Z,8.40
2018-07-03T08:07:52.684Z,9.47
2018-07-03T08:10:23.983Z,9.73
2018-07-03T08:12:54.984Z,9.70
2018-07-03T08:15:26.185Z,10.53
2018-07-03T08:17:57.303Z,9.20
2018-07-03T08:20:29.266Z,9.87
2018-07-03T08:23:00.261Z,9.40
2018-07-03T08:25:31.406Z,9.80
2018-07-03T08:28:03.368Z,10.80
2018-07-03T08:30:34.651Z,10.10
2018-07-03T08:33:06.091Z,9.77
2018-07-03T08:35:37.337Z,10.53
2018-07-03T08:38:08.992Z,10.20
2018-07-03T08:40:40.263Z,10.80
2018-07-03T08:43:11.390Z,9.83
2018-07-03T08:45:42.474Z,11.03
2018-07-03T08:48:13.591Z,11.10
2018-07-03T08:50:44.570Z,9.90
2018-07-03T08:53:15.675Z,11.00
2018-07-03T08:55:47.092Z,11.10
2018-07-03T08:58:18.252Z,10.60
2018-07-03T09:00:49.440Z,10.00
2018-07-03T09:03:20.685Z,9.93
2018-07-03T09:05:52.687Z,9.60
2018-07-03T09:08:24.520Z,9.00
2018-07-03T09:10:55.683Z,8.83
2018-07-03T09:13:27.763Z,8.40
2018-07-03T09:15:58.785Z,9.33
2018-07-03T09:18:29.819Z,9.57
2018-07-03T09:21:01.215Z,9.77
2018-07-03T09:23:32.394Z,9.17
2018-07-03T09:26:03.809Z,10.43
2018-07-03T09:28:35.147Z,10.33
2018-07-03T09:31:07.565Z,9.60
2018-07-03T09:33:38.802Z,10.17
2018-07-03T09:36:10.018Z,9.90
2018-07-03T09:38:41.338Z,9.40
2018-07-03T09:41:12.760Z,9.60
2018-07-03T09:43:43.850Z,9.37
2018-07-03T09:46:15.263Z,9.70
2018-07-03T09:48:46.414Z,8.77
2018-07-03T09:51:17.544Z,9.13
2018-07-03T09:53:48.486Z,9.40
2018-07-03T09:56:19.724Z,9.20
2018-07-03T09:58:51.221Z,9.20
2018-07-03T10:01:22.216Z,8.50
2018-07-03T10:03:53.226Z,8.60
2018-07-03T10:06:24.418Z,9.03
2018-07-03T10:08:55.728Z,9.00
2018-07-03T10:11:26.970Z,8.93
2018-07-03T10:13:58.357Z,8.03
2018-07-03T10:16:29.267Z,8.87
2018-07-03T10:19:00.407Z,8.80
2018-07-03T10:21:32.349Z,9.93
2018-07-03T10:24:03.682Z,9.30
2018-07-03T10:26:34.765Z,9.50
2018-07-03T10:29:05.874Z,9.10
2018-07-03T10:31:36.916Z,9.10
2018-07-03T10:34:08.320Z,9.63
2018-07-03T10:36:39.377Z,9.80
2018-07-03T10:39:13.390Z,9.77
2018-07-03T10:41:44.448Z,9.90
2018-07-03T10:44:15.828Z,10.50
2018-07-03T10:46:47.320Z,9.10
2018-07-03T10:49:18.289Z,8.90
2018-07-03T10:51:49.287Z,8.77
2018-07-03T10:54:20.604Z,8.53
2018-07-03T10:56:51.782Z,9.40
2018-07-03T10:59:22.773Z,9.47
2018-07-03T11:01:54.068Z,9.17
2018-07-03T11:04:25.438Z,9.13
2018-07-03T11:06:56.672Z,11.40
2018-07-03T11:09:28.234Z,9.67
2018-07-03T11:11:59.372Z,9.23
2018-07-03T11:14:30.462Z,9.97
2018-07-03T11:17:01.608Z,9.37
2018-07-03T11:19:32.626Z,9.03
2018-07-03T11:22:04.297Z,8.20
2018-07-03T11:24:35.512Z,9.40
2018-07-03T11:27:06.763Z,9.23
2018-07-03T11:29:37.821Z,9.10
2018-07-03T11:32:08.947Z,10.20
2018-07-03T11:34:40.197Z,8.80
2018-07-03T11:37:11.351Z,8.50
2018-07-03T11:39:42.611Z,8.53
2018-07-03T11:42:13.825Z,9.90
2018-07-03T11:44:45.039Z,9.00
2018-07-03T11:47:16.155Z,10.43
2018-07-03T11:49:47.126Z,9.27
2018-07-03T11:52:18.468Z,9.43
2018-07-03T11:54:49.572Z,10.03
2018-07-03T11:57:20.745Z,10.10
2018-07-03T11:59:52.000Z,10.27
2018-07-03T12:02:23.468Z,10.17
2018-07-03T12:04:54.709Z,9.27
2018-07-03T12:07:26.262Z,9.70
2018-07-03T12:09:57.550Z,9.60
2018-07-03T12:12:28.537Z,10.03
2018-07-03T12:14:59.421Z,10.00
2018-07-03T12:17:30.413Z,10.63
2018-07-03T12:20:01.445Z,11.87
2018-07-03T12:22:32.908Z,10.50
2018-07-03T12:25:04.595Z,10.20
2018-07-03T12:27:36.823Z,10.47
2018-07-03T12:30:10.428Z,10.57
2018-07-03T12:32:41.852Z,10.53
2018-07-03T12:35:13.001Z,11.57
2018-07-03T12:37:44.151Z,10.33
2018-07-03T12:40:15.263Z,11.87
2018-07-03T12:42:46.397Z,10.77
2018-07-03T12:45:17.647Z,11.63
2018-07-03T12:47:48.804Z,10.87
2018-07-03T12:50:19.928Z,12.07
2018-07-03T12:52:51.160Z,10.87
2018-07-03T12:55:22.371Z,11.53
2018-07-03T12:57:53.569Z,12.30
2018-07-03T13:00:24.858Z,10.70
2018-07-03T13:02:56.033Z,11.63
2018-07-03T13:05:27.329Z,11.30
2018-07-03T13:07:58.534Z,11.33
2018-07-03T13:10:30.336Z,12.13
2018-07-03T13:13:01.533Z,11.37
2018-07-03T13:15:32.623Z,10.70
2018-07-03T13:18:08.687Z,10.97
2018-07-03T13:20:39.857Z,10.97
2018-07-03T13:23:11.390Z,11.23
2018-07-03T13:25:42.531Z,10.63
2018-07-03T13:28:13.793Z,12.30
2018-07-03T13:30:44.952Z,11.17
2018-07-03T13:33:16.180Z,10.90
2018-07-03T13:35:47.279Z,10.13
2018-07-03T13:38:18.435Z,20.00
2018-07-03T13:40:49.571Z,28.97
2018-07-03T13:43:20.658Z,11.60
2018-07-03T13:45:51.625Z,10.43
2018-07-03T13:48:22.904Z,10.43
2018-07-03T13:50:53.744Z,10.87
2018-07-03T13:53:24.997Z,9.80
2018-07-03T13:55:56.498Z,10.03
2018-07-03T13:58:28.013Z,11.10
2018-07-03T14:00:59.154Z,10.73
2018-07-03T14:03:30.409Z,10.93
2018-07-03T14:06:01.535Z,9.33
2018-07-03T14:08:32.673Z,10.63
2018-07-03T14:11:03.822Z,10.40
2018-07-03T14:13:35.134Z,9.80
2018-07-03T14:16:06.237Z,9.70
2018-07-03T14:18:37.218Z,10.20
2018-07-03T14:21:08.639Z,9.77
2018-07-03T14:23:39.872Z,10.30
2018-07-03T14:26:10.957Z,9.20
2018-07-03T14:28:42.134Z,9.50
2018-07-03T14:31:13.338Z,10.10
2018-07-03T14:33:44.412Z,9.40
2018-07-03T14:36:15.668Z,10.23
2018-07-03T14:38:46.889Z,9.80
2018-07-03T14:41:18.103Z,9.13
2018-07-03T14:43:49.196Z,9.03
2018-07-03T14:46:20.213Z,9.40
2018-07-03T14:48:51.345Z,9.10
2018-07-03T14:51:22.373Z,8.60
2018-07-03T14:53:53.571Z,7.80
2018-07-03T14:56:24.786Z,7.83
2018-07-03T14:58:57.442Z,8.80
2018-07-03T15:01:28.515Z,9.00
2018-07-03T15:03:59.717Z,8.10
2018-07-03T15:06:30.622Z,19.57
2018-07-03T15:09:02.104Z,17.93
2018-07-03T15:11:33.235Z,10.47
2018-07-03T15:14:04.503Z,23.17
2018-07-03T15:16:35.613Z,9.80
2018-07-03T15:19:11.744Z,8.60
2018-07-03T15:21:44.102Z,8.00
2018-07-03T15:24:15.118Z,7.87
2018-07-03T15:26:46.108Z,8.27
2018-07-03T15:29:17.353Z,7.57
2018-07-03T15:31:48.470Z,7.40
2018-07-03T15:34:19.878Z,8.33
2018-07-03T15:36:51.080Z,8.90
2018-07-03T15:39:22.249Z,8.17
2018-07-03T15:41:53.775Z,7.63
2018-07-03T15:44:35.557Z,8.00
2018-07-03T15:47:07.548Z,7.20
2018-07-03T15:49:38.729Z,7.40
2018-07-03T15:52:10.093Z,7.90
2018-07-03T15:54:41.381Z,8.23
2018-07-03T15:57:12.689Z,7.97
2018-07-03T15:59:44.013Z,8.00
2018-07-03T16:02:15.087Z,7.37
2018-07-03T16:05:00.488Z,7.40
2018-07-03T16:07:45.900Z,8.40
2018-07-03T16:10:16.989Z,7.53
2018-07-03T16:12:48.109Z,7.63
2018-07-03T16:15:19.380Z,7.87
2018-07-03T16:17:51.989Z,8.00
2018-07-03T16:20:27.861Z,7.30
2018-07-03T16:22:58.862Z,7.17
2018-07-03T16:25:30.133Z,8.27
2018-07-03T16:28:01.246Z,6.83
2018-07-03T16:30:32.407Z,7.53
2018-07-03T16:33:04.188Z,7.37
2018-07-03T16:35:36.160Z,7.03
2018-07-03T16:38:07.441Z,7.20
2018-07-03T16:40:39.771Z,7.53
2018-07-03T16:43:11.031Z,7.80
2018-07-03T16:45:43.161Z,7.43
2018-07-03T16:48:15.221Z,7.57
2018-07-03T16:50:46.473Z,7.00
2018-07-03T16:53:17.786Z,7.97
2018-07-03T16:55:49.053Z,8.47
2018-07-03T16:58:20.061Z,7.67
2018-07-03T17:00:51.334Z,7.03
2018-07-03T17:03:22.510Z,7.47
2018-07-03T17:05:53.710Z,7.80
2018-07-03T17:08:25.218Z,7.93
2018-07-03T17:10:56.459Z,7.80
2018-07-03T17:13:28.850Z,8.23
2018-07-03T17:16:00.244Z,8.63
2018-07-03T17:18:32.497Z,9.07
2018-07-03T17:21:03.812Z,8.97
2018-07-03T17:23:34.813Z,10.20
2018-07-03T17:26:06.245Z,7.80
2018-07-03T17:28:38.254Z,9.93
2018-07-03T17:31:09.388Z,9.50
2018-07-03T17:33:40.874Z,11.07
2018-07-03T17:36:12.762Z,9.73
2018-07-03T17:38:43.923Z,9.57
2018-07-03T17:41:25.665Z,8.80
2018-07-03T17:44:09.439Z,9.70
2018-07-03T17:46:41.321Z,9.90
2018-07-03T17:49:12.517Z,9.67
2018-07-03T17:51:43.812Z,8.50
2018-07-03T17:54:15.068Z,10.23
2018-07-03T17:56:46.432Z,9.90
2018-07-03T17:59:17.565Z,11.57
2018-07-03T18:01:49.166Z,11.80
2018-07-03T18:04:20.611Z,13.23
2018-07-03T18:06:52.712Z,11.47
2018-07-03T18:09:23.812Z,11.30
2018-07-03T18:11:56.219Z,11.67
2018-07-03T18:14:27.448Z,10.97
2018-07-03T18:16:59.788Z,11.70
2018-07-03T18:19:47.784Z,10.70
2018-07-03T18:22:20.357Z,11.00
2018-07-03T18:24:51.761Z,11.53
2018-07-03T18:27:24.241Z,10.67
2018-07-03T18:29:55.926Z,11.00
2018-07-03T18:32:27.618Z,11.67
2018-07-03T18:35:01.059Z,11.47
2018-07-03T18:37:32.241Z,12.80
2018-07-03T18:40:03.761Z,11.77
2018-07-03T18:42:34.932Z,12.67
2018-07-03T18:45:06.755Z,12.80
2018-07-03T18:47:39.191Z,12.90
2018-07-03T18:50:10.321Z,13.13
2018-07-03T18:52:41.738Z,13.90
2018-07-03T18:55:12.996Z,12.90
2018-07-03T18:57:44.232Z,13.00
2018-07-03T19:00:15.622Z,12.93
2018-07-03T19:02:49.444Z,13.50
2018-07-03T19:05:22.481Z,13.07
2018-07-03T19:07:57.198Z,14.03
2018-07-03T19:10:30.075Z,12.97
2018-07-03T19:13:01.392Z,13.10
2018-07-03T19:15:32.811Z,13.97
2018-07-03T19:18:05.249Z,13.53
2018-07-03T19:20:36.348Z,13.53
2018-07-03T19:23:07.507Z,13.20
2018-07-03T19:25:39.688Z,12.97
2018-07-03T19:28:11.861Z,12.90
2018-07-03T19:30:43.994Z,14.57
2018-07-03T19:33:15.872Z,15.33
2018-07-03T19:35:47.097Z,14.03
2018-07-03T19:38:18.306Z,14.03
2018-07-03T19:40:49.447Z,13.73
2018-07-03T19:43:25.538Z,14.10
2018-07-03T19:45:57.412Z,12.90
2018-07-03T19:48:28.547Z,13.30
2018-07-03T19:50:59.809Z,12.83
2018-07-03T19:53:32.068Z,12.30
2018-07-03T19:56:03.295Z,12.40
2018-07-03T19:58:34.613Z,13.80
2018-07-03T20:01:06.053Z,12.93
2018-07-03T20:03:37.256Z,12.80
2018-07-03T20:06:08.512Z,12.40
2018-07-03T20:08:40.870Z,12.30
2018-07-03T20:11:12.345Z,12.00
2018-07-03T20:13:44.110Z,13.47
2018-07-03T20:16:16.529Z,11.70
2018-07-03T20:18:48.139Z,12.30
2018-07-03T20:21:20.978Z,12.53
2018-07-03T20:23:53.007Z,11.70
2018-07-03T20:26:25.145Z,12.90
2018-07-03T20:28:56.859Z,13.20
2018-07-03T20:31:29.527Z,13.43
2018-07-03T20:34:01.482Z,11.67
2018-07-03T20:36:33.277Z,12.83
2018-07-03T20:39:06.267Z,12.40
2018-07-03T20:41:38.343Z,12.40
2018-07-03T20:44:09.789Z,12.70
2018-07-03T20:46:41.233Z,12.67
2018-07-03T20:49:12.507Z,12.37
2018-07-03T20:51:43.806Z,12.07
2018-07-03T20:54:15.265Z,13.53
2018-07-03T20:56:46.525Z,14.50
2018-07-03T20:59:18.023Z,13.40
2018-07-03T21:01:49.670Z,12.80
2018-07-03T21:04:20.891Z,13.43
2018-07-03T21:06:51.967Z,14.67
2018-07-03T21:09:23.230Z,14.03
2018-07-03T21:11:54.579Z,13.00
2018-07-03T21:14:25.896Z,14.00
2018-07-03T21:16:57.313Z,14.93
2018-07-03T21:19:29.428Z,15.00
2018-07-03T21:22:02.129Z,15.53
2018-07-03T21:24:33.673Z,16.20
2018-07-03T21:27:04.845Z,15.63
2018-07-03T21:29:41.316Z,15.00
2018-07-03T21:32:14.795Z,15.83
2018-07-03T21:34:47.499Z,15.93
2018-07-03T21:37:19.228Z,16.40
2018-07-03T21:39:50.899Z,16.93
2018-07-03T21:42:22.510Z,16.80
2018-07-03T21:44:53.832Z,16.90
2018-07-03T21:47:25.372Z,17.70
2018-07-03T21:49:57.150Z,18.57
2018-07-03T21:52:28.548Z,16.87
2018-07-03T21:54:59.808Z,17.27
2018-07-03T21:57:31.280Z,18.40
2018-07-03T22:00:03.631Z,17.43
2018-07-03T22:02:36.018Z,17.53
2018-07-03T22:05:07.880Z,18.33
2018-07-03T22:07:39.435Z,17.30
2018-07-03T22:10:11.467Z,15.30
2018-07-03T22:12:42.701Z,18.03
2018-07-03T22:15:13.823Z,18.80
2018-07-03T22:17:44.990Z,17.53
2018-07-03T22:20:16.402Z,18.00
2018-07-03T22:22:47.552Z,17.33
2018-07-03T22:25:18.714Z,17.33
2018-07-03T22:27:49.830Z,17.53
2018-07-03T22:30:21.007Z,18.47
2018-07-03T22:32:52.491Z,17.53
2018-07-03T22:35:23.831Z,17.33
2018-07-03T22:37:55.093Z,16.37
2018-07-03T22:40:26.496Z,16.70
2018-07-03T22:42:58.027Z,16.67
2018-07-03T22:45:29.602Z,17.27
2018-07-03T22:48:00.725Z,16.47
2018-07-03T22:50:32.040Z,17.93
2018-07-03T22:53:03.069Z,17.43
2018-07-03T22:55:34.569Z,18.00
2018-07-03T22:58:05.833Z,17.03
2018-07-03T23:00:40.491Z,16.37
2018-07-03T23:03:12.779Z,16.27
2018-07-03T23:05:43.983Z,15.27
2018-07-03T23:08:15.488Z,16.60
2018-07-03T23:10:46.804Z,16.43
2018-07-03T23:13:18.065Z,17.73
2018-07-03T23:15:49.103Z,17.17
2018-07-03T23:18:20.683Z,15.77
2018-07-03T23:20:51.977Z,16.87
2018-07-03T23:23:22.969Z,16.17
2018-07-03T23:25:54.092Z,16.47
2018-07-03T23:28:25.512Z,16.13
2018-07-03T23:30:56.396Z,16.70
2018-07-03T23:33:27.802Z,15.90
2018-07-03T23:35:58.979Z,16.37
2018-07-03T23:38:31.918Z,16.47
2018-07-03T23:41:03.657Z,16.03
2018-07-03T23:43:34.639Z,15.93
2018-07-03T23:46:03.845Z,15.80
2018-07-03T23:48:46.244Z,17.93
2018-07-03T23:51:33.319Z,16.23
2018-07-03T23:54:21.003Z,15.90
2018-07-03T23:57:08.665Z,15.57
2018-07-03T23:59:56.267Z,13.83
